CheckWX is a tool to help pilots better visualize weather data.  It is not intended as a substitute for an official pre-flight weather briefing.

21:01:41 UTC

KFRR METAR
Front Royal-Warren County Airport
Front Royal, Virginia, USA
Current

7 mins ago

KFRR 232055Z AUTO 22005KT 10SM CLR 26/20 A3000 RMK AO1
Observed
May-23 @ 20:55 UTC
Wind
  • 220° at 5 KTS
Visibility
10 SM
Flight Rules
VFR
Cloud Levels
  • Clear skies
Temperature
26°C / 79°F
Dewpoint
20°C / 68°F
Humidity
70%
Altimeter
30" Hg
Pressure
1015.92 hPa
Previous

27 mins ago

KFRR 232035Z AUTO 20005KT 10SM CLR 26/21 A2999 RMK AO1
Observed
May-23 @ 20:35 UTC
Wind
  • 200° at 5 KTS
Visibility
10 SM
Flight Rules
VFR
Cloud Levels
  • Clear skies
Temperature
26°C / 79°F
Dewpoint
21°C / 70°F
Humidity
74%
Altimeter
29.99" Hg
Pressure
1015.62 hPa
Previous

2 hours ago

KFRR 231915Z AUTO 23005KT 10SM SCT060 SCT075 SCT110 22/20 A3006 RMK AO1
Observed
May-23 @ 19:15 UTC
Wind
  • 230° at 5 KTS
Visibility
10 SM
Flight Rules
VFR
Cloud Levels
  • Scattered at 6,000' AGL
  • Scattered at 7,500' AGL
  • Scattered at 11,000' AGL
Temperature
22°C / 72°F
Dewpoint
20°C / 68°F
Humidity
88%
Altimeter
30.06" Hg
Pressure
1017.92 hPa